createdAt,value
2018-04-19T00:01:06.896Z,14.90
2018-04-19T00:03:34.361Z,14.80
2018-04-19T00:06:01.816Z,14.80
2018-04-19T00:08:29.393Z,14.70
2018-04-19T00:10:57.035Z,14.70
2018-04-19T00:13:24.548Z,14.60
2018-04-19T00:15:52.071Z,14.60
2018-04-19T00:18:19.889Z,14.60
2018-04-19T00:20:47.513Z,14.50
2018-04-19T00:23:14.960Z,14.60
2018-04-19T00:25:42.505Z,14.50
2018-04-19T00:28:09.965Z,14.50
2018-04-19T00:30:37.609Z,14.40
2018-04-19T00:33:05.177Z,14.40
2018-04-19T00:35:32.656Z,14.30
2018-04-19T00:38:00.406Z,14.30
2018-04-19T00:40:28.169Z,14.20
2018-04-19T00:42:55.927Z,14.20
2018-04-19T00:45:23.393Z,14.10
2018-04-19T00:47:51.157Z,14.10
2018-04-19T00:50:18.760Z,14.10
2018-04-19T00:52:58.117Z,14.10
2018-04-19T00:55:25.589Z,14.10
2018-04-19T00:57:53.051Z,14.00
2018-04-19T01:00:20.725Z,14.00
2018-04-19T01:02:48.222Z,14.10
2018-04-19T01:05:15.954Z,14.10
2018-04-19T01:07:43.596Z,14.00
2018-04-19T01:10:11.181Z,14.00
2018-04-19T01:12:38.923Z,14.00
2018-04-19T01:15:06.364Z,13.90
2018-04-19T01:17:33.834Z,13.90
2018-04-19T01:20:01.296Z,13.90
2018-04-19T01:22:29.228Z,13.90
2018-04-19T01:24:56.742Z,13.80
2018-04-19T01:27:24.284Z,13.80
2018-04-19T01:29:51.746Z,13.70
2018-04-19T01:32:19.399Z,13.70
2018-04-19T01:34:46.880Z,13.70
2018-04-19T01:37:14.428Z,13.70
2018-04-19T01:39:41.881Z,13.70
2018-04-19T01:42:09.355Z,13.70
2018-04-19T01:44:37.110Z,13.70
2018-04-19T01:47:05.251Z,13.70
2018-04-19T01:49:32.727Z,13.70
2018-04-19T01:52:00.181Z,13.70
2018-04-19T01:54:27.646Z,13.60
2018-04-19T01:56:55.410Z,13.50
2018-04-19T01:59:23.074Z,13.50
2018-04-19T02:01:50.834Z,13.50
2018-04-19T02:04:18.630Z,13.40
2018-04-19T02:06:46.270Z,13.40
2018-04-19T02:09:13.737Z,13.30
2018-04-19T02:11:41.277Z,13.20
2018-04-19T02:14:08.925Z,13.20
2018-04-19T02:16:36.386Z,13.10
2018-04-19T02:19:04.650Z,13.10
2018-04-19T02:21:32.206Z,13.00
2018-04-19T02:23:59.785Z,13.00
2018-04-19T02:26:27.242Z,13.00
2018-04-19T02:28:54.713Z,12.90
2018-04-19T02:31:22.166Z,12.90
2018-04-19T02:33:49.642Z,12.90
2018-04-19T02:36:17.098Z,12.90
2018-04-19T02:38:44.842Z,12.90
2018-04-19T02:41:12.301Z,12.90
2018-04-19T02:43:40.062Z,12.90
2018-04-19T02:46:07.737Z,12.90
2018-04-19T02:48:35.202Z,12.80
2018-04-19T02:51:02.738Z,12.80
2018-04-19T02:53:30.265Z,12.80
2018-04-19T02:55:57.737Z,12.80
2018-04-19T02:58:25.212Z,12.80
2018-04-19T03:00:52.682Z,12.80
2018-04-19T03:03:20.947Z,12.80
2018-04-19T03:05:48.623Z,12.80
2018-04-19T03:08:16.850Z,12.70
2018-04-19T03:10:44.543Z,12.70
2018-04-19T03:13:12.303Z,12.70
2018-04-19T03:15:40.070Z,12.70
2018-04-19T03:18:07.836Z,12.70
2018-04-19T03:20:35.519Z,12.70
2018-04-19T03:23:03.020Z,12.60
2018-04-19T03:25:30.489Z,12.60
2018-04-19T03:27:57.946Z,12.60
2018-04-19T03:30:25.410Z,12.50
2018-04-19T03:32:53.070Z,12.50
2018-04-19T03:35:20.533Z,12.50
2018-04-19T03:37:48.094Z,12.50
2018-04-19T03:40:15.559Z,12.40
2018-04-19T03:42:43.226Z,12.40
2018-04-19T03:45:10.769Z,12.40
2018-04-19T03:47:38.246Z,12.40
2018-04-19T03:50:05.986Z,12.30
2018-04-19T03:52:33.450Z,12.30
2018-04-19T03:55:06.470Z,12.20
2018-04-19T03:57:39.414Z,12.20
2018-04-19T04:00:15.430Z,12.10
2018-04-19T04:02:42.903Z,12.10
2018-04-19T04:05:10.403Z,12.10
2018-04-19T04:07:37.870Z,12.10
2018-04-19T04:10:05.524Z,12.10
2018-04-19T04:12:33.010Z,12.10
2018-04-19T04:15:00.478Z,12.10
2018-04-19T04:17:39.618Z,12.10
2018-04-19T04:20:23.617Z,12.10
2018-04-19T04:23:02.882Z,12.10
2018-04-19T04:25:30.362Z,12.10
2018-04-19T04:27:57.935Z,12.10
2018-04-19T04:30:25.390Z,12.10
2018-04-19T04:32:52.885Z,12.10
2018-04-19T04:35:20.383Z,12.10
2018-04-19T04:37:47.836Z,12.10
2018-04-19T04:40:15.352Z,12.00
2018-04-19T04:42:43.101Z,12.00
2018-04-19T04:45:11.422Z,12.00
2018-04-19T04:47:38.886Z,12.00
2018-04-19T04:50:06.392Z,12.00
2018-04-19T04:52:33.854Z,12.00
2018-04-19T04:55:01.322Z,12.00
2018-04-19T04:57:28.945Z,12.00
2018-04-19T04:59:56.422Z,12.00
2018-04-19T05:02:24.011Z,12.00
2018-04-19T05:04:51.670Z,12.00
2018-04-19T05:07:19.135Z,12.00
2018-04-19T05:09:46.666Z,12.00
2018-04-19T05:12:15.218Z,12.00
2018-04-19T05:14:42.802Z,12.00
2018-04-19T05:17:10.566Z,12.00
2018-04-19T05:19:38.326Z,12.10
2018-04-19T05:22:05.797Z,12.10
2018-04-19T05:24:33.383Z,12.20
2018-04-19T05:27:01.933Z,12.40
2018-04-19T05:29:29.496Z,12.40
2018-04-19T05:31:57.159Z,12.50
2018-04-19T05:34:24.905Z,12.50
2018-04-19T05:36:52.444Z,12.50
2018-04-19T05:39:19.913Z,12.50
2018-04-19T05:41:47.591Z,12.50
2018-04-19T05:44:15.059Z,12.60
2018-04-19T05:46:42.817Z,12.70
2018-04-19T05:49:10.274Z,12.70
2018-04-19T05:51:37.905Z,12.70
2018-04-19T05:54:05.366Z,12.80
2018-04-19T05:56:32.950Z,12.80
2018-04-19T05:59:00.413Z,12.90
2018-04-19T06:01:28.020Z,12.90
2018-04-19T06:03:55.630Z,13.00
2018-04-19T06:06:23.112Z,13.10
2018-04-19T06:08:50.846Z,13.10
2018-04-19T06:11:18.527Z,13.20
2018-04-19T06:13:46.064Z,13.30
2018-04-19T06:16:13.526Z,13.40
2018-04-19T06:18:41.165Z,13.50
2018-04-19T06:21:08.751Z,13.60
2018-04-19T06:23:36.232Z,13.60
2018-04-19T06:26:03.809Z,13.70
2018-04-19T06:28:31.344Z,13.70
2018-04-19T06:30:58.874Z,13.80
2018-04-19T06:33:26.638Z,13.80
2018-04-19T06:35:54.397Z,13.90
2018-04-19T06:38:21.877Z,14.00
2018-04-19T06:40:51.444Z,14.10
2018-04-19T06:43:18.917Z,14.10
2018-04-19T06:45:46.382Z,14.20
2018-04-19T06:48:14.298Z,14.30
2018-04-19T06:50:41.762Z,14.30
2018-04-19T06:53:09.281Z,14.40
2018-04-19T06:55:36.821Z,14.50
2018-04-19T06:58:04.739Z,14.60
2018-04-19T07:00:32.213Z,14.70
2018-04-19T07:02:59.970Z,14.80
2018-04-19T07:05:27.445Z,14.80
2018-04-19T07:07:55.131Z,14.90
2018-04-19T07:10:22.591Z,15.00
2018-04-19T07:12:50.055Z,15.10
2018-04-19T07:15:17.549Z,15.20
2018-04-19T07:17:45.315Z,15.30
2018-04-19T07:20:13.538Z,15.50
2018-04-19T07:22:41.010Z,15.50
2018-04-19T07:25:09.073Z,15.60
2018-04-19T07:27:37.330Z,15.70
2018-04-19T07:30:05.336Z,15.70
2018-04-19T07:32:33.578Z,15.90
2018-04-19T07:35:01.038Z,15.80
2018-04-19T07:37:28.507Z,15.90
2018-04-19T07:39:56.010Z,16.00
2018-04-19T07:42:23.480Z,16.10
2018-04-19T07:44:51.027Z,16.20
2018-04-19T07:47:18.790Z,16.30
2018-04-19T07:49:46.271Z,16.40
2018-04-19T07:52:13.760Z,16.50
2018-04-19T07:54:41.272Z,16.60
2018-04-19T07:57:08.743Z,16.60
2018-04-19T07:59:36.203Z,16.70
2018-04-19T08:02:03.672Z,16.80
2018-04-19T08:04:31.148Z,16.90
2018-04-19T08:06:58.614Z,17.00
2018-04-19T08:09:26.859Z,17.20
2018-04-19T08:11:54.342Z,17.20
2018-04-19T08:14:21.812Z,17.30
2018-04-19T08:16:49.285Z,17.40
2018-04-19T08:19:16.766Z,17.50
2018-04-19T08:21:44.238Z,17.60
2018-04-19T08:24:11.721Z,17.60
2018-04-19T08:26:39.973Z,17.80
2018-04-19T08:29:07.462Z,17.80
2018-04-19T08:31:34.922Z,17.80
2018-04-19T08:34:02.387Z,17.90
2018-04-19T08:36:29.842Z,18.00
2018-04-19T08:38:57.309Z,18.10
2018-04-19T08:41:24.767Z,18.10
2018-04-19T08:43:52.264Z,18.20
2018-04-19T08:46:19.733Z,18.30
2018-04-19T08:48:47.214Z,18.40
2018-04-19T08:51:14.686Z,18.50
2018-04-19T08:53:42.142Z,18.60
2018-04-19T08:56:09.606Z,18.60
2018-04-19T08:58:37.061Z,18.70
2018-04-19T09:01:04.622Z,18.80
2018-04-19T09:03:32.852Z,19.00
2018-04-19T09:06:00.325Z,19.00
2018-04-19T09:08:27.928Z,19.10
2018-04-19T09:10:55.402Z,19.20
2018-04-19T09:13:22.849Z,19.30
2018-04-19T09:15:50.332Z,19.40
2018-04-19T09:18:17.795Z,19.50
2018-04-19T09:20:45.259Z,19.50
2018-04-19T09:23:12.832Z,19.60
2018-04-19T09:25:40.194Z,19.70
2018-04-19T09:28:07.679Z,19.80
2018-04-19T09:30:35.142Z,19.80
2018-04-19T09:33:02.629Z,19.90
2018-04-19T09:35:30.091Z,20.00
2018-04-19T09:37:57.555Z,20.00
2018-04-19T09:40:25.022Z,20.00
2018-04-19T09:42:52.486Z,20.10
2018-04-19T09:45:19.943Z,20.20
2018-04-19T09:47:48.207Z,20.40
2018-04-19T09:50:15.692Z,20.30
2018-04-19T09:52:43.167Z,20.40
2018-04-19T09:55:10.613Z,20.40
2018-04-19T09:57:38.139Z,20.50
2018-04-19T10:00:05.597Z,20.50
2018-04-19T10:02:34.831Z,20.60
2018-04-19T10:05:02.297Z,20.60
2018-04-19T10:07:29.957Z,20.70
2018-04-19T10:09:57.433Z,20.80
2018-04-19T10:12:25.181Z,20.90
2018-04-19T10:14:52.648Z,20.90
2018-04-19T10:17:20.113Z,21.00
2018-04-19T10:19:47.790Z,21.00
2018-04-19T10:22:15.254Z,21.10
2018-04-19T10:24:42.717Z,21.10
2018-04-19T10:27:10.170Z,21.20
2018-04-19T10:29:37.654Z,21.20
2018-04-19T10:32:05.890Z,21.30
2018-04-19T10:34:33.411Z,21.30
2018-04-19T10:37:00.937Z,21.40
2018-04-19T10:39:28.397Z,21.40
2018-04-19T10:41:56.672Z,21.50
2018-04-19T10:44:24.179Z,21.50
2018-04-19T10:46:51.644Z,21.60
2018-04-19T10:49:19.114Z,21.60
2018-04-19T10:51:46.573Z,21.70
2018-04-19T10:54:14.048Z,21.70
2018-04-19T10:56:41.554Z,21.80
2018-04-19T10:59:09.157Z,21.80
2018-04-19T11:01:36.626Z,21.90
2018-04-19T11:04:04.101Z,22.00
2018-04-19T11:06:31.583Z,22.00
2018-04-19T11:08:59.052Z,22.10
2018-04-19T11:11:26.525Z,22.10
2018-04-19T11:13:53.997Z,22.20
2018-04-19T11:16:21.511Z,22.30
2018-04-19T11:18:49.861Z,22.30
2018-04-19T11:21:18.105Z,22.40
2018-04-19T11:23:46.290Z,22.40
2018-04-19T11:26:13.770Z,22.40
2018-04-19T11:28:42.010Z,22.60
2018-04-19T11:31:10.068Z,22.60
2018-04-19T11:33:37.526Z,22.60
2018-04-19T11:36:05.798Z,22.60
2018-04-19T11:38:33.479Z,22.60
2018-04-19T11:41:00.986Z,22.70
2018-04-19T11:43:28.451Z,22.80
2018-04-19T11:45:56.832Z,22.90
2018-04-19T11:48:24.536Z,23.00
2018-04-19T11:50:52.046Z,23.00
2018-04-19T11:53:19.725Z,23.00
2018-04-19T11:55:47.177Z,23.10
2018-04-19T11:58:14.654Z,23.20
2018-04-19T12:00:42.106Z,23.20
2018-04-19T12:03:09.578Z,23.30
2018-04-19T12:05:37.038Z,23.40
2018-04-19T12:08:04.547Z,23.50
2018-04-19T12:10:32.008Z,23.60
2018-04-19T12:12:59.469Z,23.70
2018-04-19T12:15:26.926Z,23.70
2018-04-19T12:17:54.688Z,23.80
2018-04-19T12:20:22.146Z,23.90
2018-04-19T12:22:49.626Z,24.00
2018-04-19T12:25:17.085Z,24.10
2018-04-19T12:27:44.566Z,24.10
2018-04-19T12:30:12.022Z,24.20
2018-04-19T12:32:39.486Z,24.20
2018-04-19T12:35:06.961Z,24.20
2018-04-19T12:37:34.498Z,24.40
2018-04-19T12:40:01.942Z,24.40
2018-04-19T12:42:29.415Z,24.40
2018-04-19T12:44:56.896Z,24.50
2018-04-19T12:47:24.368Z,24.60
2018-04-19T12:49:51.836Z,24.70
2018-04-19T12:52:19.491Z,24.80
2018-04-19T12:54:47.051Z,24.80
2018-04-19T12:57:15.184Z,24.90
2018-04-19T12:59:42.690Z,25.00
2018-04-19T13:02:10.187Z,25.10
2018-04-19T13:04:37.663Z,25.20
2018-04-19T13:07:05.999Z,25.30
2018-04-19T13:12:07.350Z,25.40
2018-04-19T13:14:34.899Z,25.40
2018-04-19T13:17:02.349Z,25.50
2018-04-19T13:19:29.815Z,25.50
2018-04-19T13:21:57.266Z,25.50
2018-04-19T13:24:24.733Z,25.50
2018-04-19T13:26:52.201Z,25.60
2018-04-19T13:29:19.668Z,25.70
2018-04-19T13:31:47.510Z,25.70
2018-04-19T13:34:14.970Z,25.80
2018-04-19T13:36:42.445Z,25.90
2018-04-19T13:39:09.900Z,25.90
2018-04-19T13:41:37.370Z,26.00
2018-04-19T13:44:04.825Z,26.10
2018-04-19T13:46:32.294Z,26.30
2018-04-19T13:48:59.755Z,26.60
2018-04-19T13:51:27.225Z,27.10
2018-04-19T13:53:55.457Z,29.60
2018-04-19T13:56:22.926Z,29.50
2018-04-19T13:58:50.405Z,31.80
2018-04-19T14:01:17.867Z,33.50
2018-04-19T14:03:45.463Z,34.60
2018-04-19T14:06:12.926Z,35.40
2018-04-19T14:08:40.684Z,36.70
2018-04-19T14:11:08.158Z,38.40
2018-04-19T14:13:35.630Z,39.70
2018-04-19T14:16:03.133Z,39.80
2018-04-19T14:18:30.588Z,40.50
2018-04-19T14:20:58.043Z,41.40
2018-04-19T14:23:25.510Z,40.90
2018-04-19T14:25:52.971Z,40.60
2018-04-19T14:28:20.436Z,39.40
2018-04-19T14:30:47.909Z,38.70
2018-04-19T14:33:16.050Z,37.70
2018-04-19T14:35:43.558Z,37.70
2018-04-19T14:38:11.038Z,39.10
2018-04-19T14:40:38.493Z,38.90
2018-04-19T14:43:05.962Z,38.30
2018-04-19T14:45:34.380Z,40.30
2018-04-19T14:48:01.837Z,40.20
2018-04-19T14:50:29.323Z,41.40
2018-04-19T14:52:56.794Z,42.10
2018-04-19T14:55:24.508Z,41.60
2018-04-19T14:57:51.902Z,41.20
2018-04-19T15:00:19.402Z,40.90
2018-04-19T15:02:47.626Z,40.80
2018-04-19T15:05:15.507Z,40.80
2018-04-19T15:07:42.985Z,40.40
2018-04-19T15:10:11.244Z,37.60
2018-04-19T15:12:38.701Z,37.50
2018-04-19T15:15:06.317Z,36.00
2018-04-19T15:17:33.758Z,34.80
2018-04-19T15:20:01.267Z,33.70
2018-04-19T15:22:28.729Z,32.80
2018-04-19T15:24:56.217Z,32.10
2018-04-19T15:27:23.747Z,31.40
2018-04-19T15:29:51.210Z,31.00
2018-04-19T15:32:18.665Z,30.70
2018-04-19T15:34:46.150Z,30.50
2018-04-19T15:37:13.606Z,30.50
2018-04-19T15:39:41.081Z,30.50
2018-04-19T15:42:08.537Z,30.50
2018-04-19T15:44:35.997Z,30.40
2018-04-19T15:47:03.461Z,30.40
2018-04-19T15:49:30.934Z,31.10
2018-04-19T15:51:58.443Z,32.20
2018-04-19T15:54:26.661Z,33.30
2018-04-19T15:56:54.117Z,33.30
2018-04-19T15:59:21.590Z,33.50
2018-04-19T16:01:50.054Z,33.30
2018-04-19T16:04:17.602Z,33.50
2018-04-19T16:06:45.072Z,33.50
2018-04-19T16:09:12.543Z,33.40
2018-04-19T16:11:39.998Z,33.30
2018-04-19T16:14:07.477Z,32.90
2018-04-19T16:16:34.942Z,32.60
2018-04-19T16:19:02.425Z,32.10
2018-04-19T16:21:29.867Z,31.40
2018-04-19T16:23:58.138Z,31.90
2018-04-19T16:26:25.581Z,31.90
2018-04-19T16:28:53.097Z,31.80
2018-04-19T16:31:20.527Z,31.40
2018-04-19T16:33:48.741Z,31.70
2018-04-19T16:36:16.224Z,31.60
2018-04-19T16:38:43.763Z,32.40
2018-04-19T16:41:11.218Z,32.30
2018-04-19T16:43:38.677Z,32.10
2018-04-19T16:46:06.177Z,31.70
2018-04-19T16:48:34.424Z,31.70
2018-04-19T16:51:01.873Z,31.80
2018-04-19T16:53:29.343Z,31.90
2018-04-19T16:55:56.840Z,32.00
2018-04-19T16:58:24.341Z,31.50
2018-04-19T17:00:51.802Z,30.70
2018-04-19T17:03:19.287Z,30.00
2018-04-19T17:05:46.751Z,29.40
2018-04-19T17:08:14.994Z,28.60
2018-04-19T17:10:42.455Z,28.60
2018-04-19T17:13:09.940Z,28.30
2018-04-19T17:15:37.385Z,28.00
2018-04-19T17:18:04.873Z,27.80
2018-04-19T17:20:32.338Z,27.50
2018-04-19T17:22:59.799Z,27.40
2018-04-19T17:25:27.340Z,27.20
2018-04-19T17:27:55.357Z,27.00
2018-04-19T17:30:22.821Z,26.80
2018-04-19T17:32:50.274Z,26.70
2018-04-19T17:35:17.757Z,26.60
2018-04-19T17:37:45.206Z,26.50
2018-04-19T17:40:13.402Z,26.30
2018-04-19T17:42:40.857Z,26.10
2018-04-19T17:45:08.318Z,26.00
2018-04-19T17:47:35.780Z,25.90
2018-04-19T17:50:03.284Z,25.80
2018-04-19T17:52:30.746Z,25.70
2018-04-19T17:54:58.206Z,25.50
2018-04-19T17:57:25.658Z,25.40
2018-04-19T17:59:53.233Z,25.30
2018-04-19T18:02:20.678Z,25.10
2018-04-19T18:04:48.188Z,25.00
2018-04-19T18:07:15.690Z,24.90
2018-04-19T18:09:43.145Z,24.70
2018-04-19T18:12:10.616Z,24.60
2018-04-19T18:14:38.089Z,24.50
2018-04-19T18:17:05.549Z,24.40
2018-04-19T18:19:33.001Z,24.20
2018-04-19T18:22:00.465Z,24.10
2018-04-19T18:24:27.922Z,24.00
2018-04-19T18:26:55.386Z,23.90
2018-04-19T18:29:22.841Z,23.80
2018-04-19T18:31:50.313Z,23.70
2018-04-19T18:34:17.795Z,23.50
2018-04-19T18:36:45.253Z,23.40
2018-04-19T18:39:12.712Z,23.30
2018-04-19T18:41:40.175Z,23.20
2018-04-19T18:44:07.691Z,23.10
2018-04-19T18:46:35.159Z,23.00
2018-04-19T18:49:02.634Z,22.90
2018-04-19T18:51:30.107Z,22.80
2018-04-19T18:53:57.561Z,22.60
2018-04-19T18:56:25.260Z,22.50
2018-04-19T18:58:52.734Z,22.50
2018-04-19T19:01:20.218Z,22.40
2018-04-19T19:03:47.721Z,22.30
2018-04-19T19:06:15.182Z,22.10
2018-04-19T19:08:42.646Z,21.90
2018-04-19T19:11:10.130Z,21.70
2018-04-19T19:13:38.393Z,21.40
2018-04-19T19:16:09.638Z,21.40
2018-04-19T19:18:48.889Z,21.40
2018-04-19T19:21:16.368Z,21.30
2018-04-19T19:23:43.831Z,21.30
2018-04-19T19:26:11.316Z,21.20
2018-04-19T19:28:38.789Z,21.10
2018-04-19T19:31:06.654Z,21.10
2018-04-19T19:33:34.197Z,21.00
2018-04-19T19:36:01.667Z,20.90
2018-04-19T19:38:29.904Z,20.80
2018-04-19T19:40:57.319Z,20.80
2018-04-19T19:43:25.542Z,20.60
2018-04-19T19:45:53.003Z,20.60
2018-04-19T19:48:20.457Z,20.50
2018-04-19T19:50:47.922Z,20.40
2018-04-19T19:53:15.400Z,20.80
2018-04-19T19:55:42.886Z,20.60
2018-04-19T19:58:10.342Z,20.50
2018-04-19T20:00:37.801Z,20.30
2018-04-19T20:03:05.263Z,20.30
2018-04-19T20:05:32.721Z,20.20
2018-04-19T20:08:00.227Z,20.20
2018-04-19T20:10:27.704Z,20.10
2018-04-19T20:12:55.182Z,20.00
2018-04-19T20:15:23.425Z,19.90
2018-04-19T20:17:50.878Z,19.90
2018-04-19T20:20:18.375Z,19.80
2018-04-19T20:22:45.900Z,19.60
2018-04-19T20:25:13.380Z,19.60
2018-04-19T20:27:40.907Z,19.50
2018-04-19T20:30:08.497Z,19.40
2018-04-19T20:32:35.919Z,19.30
2018-04-19T20:35:03.419Z,19.20
2018-04-19T20:37:30.912Z,19.10
2018-04-19T20:39:58.424Z,19.10
2018-04-19T20:42:27.535Z,19.10
2018-04-19T20:44:55.787Z,19.00
2018-04-19T20:47:23.290Z,19.00
2018-04-19T20:49:50.770Z,19.00
2018-04-19T20:52:18.267Z,18.90
2018-04-19T20:54:45.730Z,18.80
2018-04-19T20:57:13.248Z,18.70
2018-04-19T20:59:40.738Z,18.70
2018-04-19T21:02:08.282Z,18.60
2018-04-19T21:04:35.773Z,18.50
2018-04-19T21:07:03.282Z,18.50
2018-04-19T21:09:30.828Z,18.30
2018-04-19T21:11:58.305Z,18.20
2018-04-19T21:14:27.061Z,18.20
2018-04-19T21:16:54.516Z,18.20
2018-04-19T21:19:21.976Z,18.20
2018-04-19T21:21:49.464Z,18.00
2018-04-19T21:24:17.075Z,17.90
2018-04-19T21:26:45.350Z,17.70
2018-04-19T21:29:12.834Z,17.70
2018-04-19T21:31:40.502Z,17.60
2018-04-19T21:34:08.025Z,17.60
2018-04-19T21:36:36.252Z,17.40
2018-04-19T21:39:03.720Z,17.40
2018-04-19T21:41:31.237Z,17.30
2018-04-19T21:43:58.698Z,17.40
2018-04-19T21:46:26.197Z,17.30
2018-04-19T21:48:53.732Z,17.30
2018-04-19T21:51:21.246Z,17.20
2018-04-19T21:53:49.496Z,17.10
2018-04-19T21:56:16.950Z,17.10
2018-04-19T21:58:44.974Z,17.10
2018-04-19T22:01:12.427Z,17.10
2018-04-19T22:03:39.929Z,17.10
2018-04-19T22:06:07.382Z,17.00
2018-04-19T22:08:35.609Z,17.00
2018-04-19T22:11:03.110Z,16.90
2018-04-19T22:13:30.574Z,16.90
2018-04-19T22:15:58.026Z,16.80
2018-04-19T22:18:25.508Z,16.80
2018-04-19T22:20:52.960Z,16.80
2018-04-19T22:23:20.425Z,16.70
2018-04-19T22:25:47.882Z,16.60
2018-04-19T22:28:15.337Z,16.60
2018-04-19T22:30:42.806Z,16.70
2018-04-19T22:33:10.266Z,16.80
2018-04-19T22:35:37.726Z,16.80
2018-04-19T22:38:05.257Z,16.80
2018-04-19T22:40:32.734Z,16.70
2018-04-19T22:43:00.959Z,16.50
2018-04-19T22:45:28.421Z,16.40
2018-04-19T22:47:55.881Z,16.40
2018-04-19T22:50:24.214Z,16.30
2018-04-19T22:52:51.670Z,16.30
2018-04-19T22:55:19.134Z,16.20
2018-04-19T22:57:46.604Z,16.20
2018-04-19T23:00:14.097Z,16.10
2018-04-19T23:02:41.548Z,16.10
2018-04-19T23:05:09.029Z,16.10
2018-04-19T23:07:36.474Z,16.10
2018-04-19T23:10:03.930Z,16.10
2018-04-19T23:12:31.399Z,16.00
2018-04-19T23:14:58.857Z,16.00
2018-04-19T23:17:26.322Z,15.90
2018-04-19T23:19:53.785Z,15.80
2018-04-19T23:22:33.099Z,15.80
2018-04-19T23:25:00.580Z,15.70
2018-04-19T23:27:28.801Z,15.50
2018-04-19T23:29:57.041Z,15.40
2018-04-19T23:32:24.499Z,15.40
2018-04-19T23:34:51.964Z,15.40
2018-04-19T23:37:19.454Z,15.40
2018-04-19T23:39:46.918Z,15.30
2018-04-19T23:42:14.398Z,15.30
2018-04-19T23:44:41.870Z,15.30
2018-04-19T23:47:09.348Z,15.40
2018-04-19T23:49:36.874Z,15.40
2018-04-19T23:52:05.106Z,15.30
2018-04-19T23:54:32.578Z,15.30
2018-04-19T23:57:00.038Z,15.20
2018-04-19T23:59:27.501Z,15.10
